Time;durP1;ratioP1;P1;durP2;ratioP2;P2;SDS_P1;SDS_P2;PMS_P1;PMS_P2;Temp;Humidity;BMP_temperature;BMP_pressure;BME280_temperature;BME280_humidity;BME280_pressure;Samples;Min_cycle;Max_cycle;Signal;HPM_P1;HPM_P2
2022/11/01 00:01:21;;;;;;;5.88;2.67;;;;;;;;;;5038674;28;93782;-77
2022/11/01 00:03:48;;;;;;;5.35;2.75;;;;;;;;;;5034166;28;94931;-77
2022/11/01 00:06:14;;;;;;;3.55;2.55;;;;;;;;;;5035624;28;93457;-77
2022/11/01 00:08:40;;;;;;;3.90;2.50;;;;;;;;;;5035515;28;92489;-77
2022/11/01 00:11:09;;;;;;;3.50;2.55;;;;;;;;;;5036276;28;94101;-78
2022/11/01 00:13:36;;;;;;;4.68;2.70;;;;;;;;;;5035719;28;93407;-78
2022/11/01 00:16:02;;;;;;;3.85;2.63;;;;;;;;;;5035141;28;92544;-77
2022/11/01 00:18:28;;;;;;;2.85;2.60;;;;;;;;;;5035775;28;93516;-77
2022/11/01 00:20:55;;;;;;;2.50;2.30;;;;;;;;;;5036083;28;92699;-78
2022/11/01 00:23:21;;;;;;;4.57;2.33;;;;;;;;;;5020867;28;92723;-77
2022/11/01 00:25:47;;;;;;;4.82;2.53;;;;;;;;;;5017859;28;94305;-77
2022/11/01 00:28:14;;;;;;;2.78;2.53;;;;;;;;;;5034295;28;95115;-77
2022/11/01 00:30:40;;;;;;;4.60;2.63;;;;;;;;;;5035087;28;96102;-77
2022/11/01 00:33:07;;;;;;;4.43;2.63;;;;;;;;;;5017852;28;93312;-77
2022/11/01 00:35:35;;;;;;;3.35;2.63;;;;;;;;;;5035673;28;92525;-77
2022/11/01 00:38:02;;;;;;;4.30;2.55;;;;;;;;;;5035235;28;93173;-77
2022/11/01 00:40:29;;;;;;;4.60;2.55;;;;;;;;;;5035268;28;93506;-78
2022/11/01 00:42:56;;;;;;;2.75;2.35;;;;;;;;;;5034793;28;92449;-77
2022/11/01 00:45:22;;;;;;;8.35;2.92;;;;;;;;;;5038119;28;93233;-78
2022/11/01 00:47:48;;;;;;;3.90;2.72;;;;;;;;;;5017710;28;92507;-77
2022/11/01 00:50:15;;;;;;;4.53;2.95;;;;;;;;;;5035352;28;93255;-77
2022/11/01 00:52:41;;;;;;;4.85;2.80;;;;;;;;;;5033658;28;96393;-77
2022/11/01 00:55:07;;;;;;;4.65;2.63;;;;;;;;;;5034974;28;92436;-77
2022/11/01 00:57:34;;;;;;;5.30;2.67;;;;;;;;;;5035166;28;93123;-77
2022/11/01 01:00:00;;;;;;;4.10;2.40;;;;;;;;;;5034847;28;93754;-77
2022/11/01 01:02:27;;;;;;;4.45;2.60;;;;;;;;;;5035063;28;92460;-77
2022/11/01 01:04:53;;;;;;;3.47;2.53;;;;;;;;;;5035442;28;94423;-77
2022/11/01 01:07:19;;;;;;;4.13;2.90;;;;;;;;;;5037702;28;93641;-77
2022/11/01 01:09:46;;;;;;;6.93;2.58;;;;;;;;;;5035493;28;93173;-78
2022/11/01 01:12:12;;;;;;;5.75;2.80;;;;;;;;;;5035062;28;96897;-77
2022/11/01 01:14:38;;;;;;;4.53;2.53;;;;;;;;;;5035224;28;92461;-77
2022/11/01 01:17:05;;;;;;;5.45;2.53;;;;;;;;;;5032965;28;94959;-77
2022/11/01 01:19:31;;;;;;;3.97;2.55;;;;;;;;;;5034691;28;93414;-78
2022/11/01 01:21:57;;;;;;;4.18;2.40;;;;;;;;;;5017182;28;92485;-78
2022/11/01 01:24:23;;;;;;;4.63;3.00;;;;;;;;;;5034929;28;93132;-77
2022/11/01 01:26:50;;;;;;;5.78;2.58;;;;;;;;;;5035266;28;93199;-77
2022/11/01 01:29:16;;;;;;;5.30;2.80;;;;;;;;;;5037549;28;92435;-77
2022/11/01 01:31:42;;;;;;;4.90;2.83;;;;;;;;;;5034344;28;93367;-77
2022/11/01 01:34:09;;;;;;;4.13;2.78;;;;;;;;;;5035055;28;91730;-77
2022/11/01 01:36:35;;;;;;;3.80;2.90;;;;;;;;;;5034844;28;92542;-77
2022/11/01 01:39:02;;;;;;;11.45;3.00;;;;;;;;;;5034890;28;94893;-77
2022/11/01 01:44:31;;;;;;;2.97;2.42;;;;;;;;;;5034367;28;95548;-77
2022/11/01 01:46:58;;;;;;;4.13;2.53;;;;;;;;;;5035006;28;93397;-78
2022/11/01 01:49:24;;;;;;;4.85;2.53;;;;;;;;;;5034402;28;92407;-77
2022/11/01 01:51:50;;;;;;;3.75;2.40;;;;;;;;;;5019384;28;93177;-78
2022/11/01 01:54:17;;;;;;;4.00;3.10;;;;;;;;;;5034566;28;92503;-77
2022/11/01 01:56:43;;;;;;;7.07;2.75;;;;;;;;;;5038408;28;93731;-77
2022/11/01 01:59:09;;;;;;;3.13;2.75;;;;;;;;;;5038249;28;92671;-78
2022/11/01 02:01:38;;;;;;;4.43;2.38;;;;;;;;;;5037965;28;92582;-77
2022/11/01 02:04:08;;;;;;;3.70;2.60;;;;;;;;;;5038292;28;95716;-78
2022/11/01 02:06:34;;;;;;;6.47;2.72;;;;;;;;;;5024244;28;95893;-77
2022/11/01 02:09:02;;;;;;;4.28;2.72;;;;;;;;;;5038020;28;92459;-77
2022/11/01 02:11:28;;;;;;;3.05;2.60;;;;;;;;;;5040759;28;95596;-78
2022/11/01 02:13:56;;;;;;;3.03;2.47;;;;;;;;;;5037815;28;92461;-78
2022/11/01 02:16:29;;;;;;;3.78;2.40;;;;;;;;;;5037365;28;95836;-78
2022/11/01 02:19:21;;;;;;;4.43;2.40;;;;;;;;;;5019388;28;93655;-77
2022/11/01 02:22:14;;;;;;;4.05;2.40;;;;;;;;;;5033678;28;92728;-77
2022/11/01 02:24:42;;;;;;;3.63;2.75;;;;;;;;;;5034077;28;93130;-77
2022/11/01 02:27:16;;;;;;;5.30;2.83;;;;;;;;;;5019448;28;93445;-77
2022/11/01 02:29:48;;;;;;;3.42;2.58;;;;;;;;;;5037275;28;92499;-77
2022/11/01 02:32:18;;;;;;;3.83;2.40;;;;;;;;;;5035829;28;94819;-77
2022/11/01 02:34:47;;;;;;;3.50;2.40;;;;;;;;;;5040397;28;93560;-77
2022/11/01 02:37:14;;;;;;;4.60;2.50;;;;;;;;;;5037300;28;93127;-77
2022/11/01 02:39:43;;;;;;;3.40;2.20;;;;;;;;;;5036958;28;93886;-77
2022/11/01 02:42:21;;;;;;;4.90;2.53;;;;;;;;;;5037910;28;92512;-77
2022/11/01 02:44:50;;;;;;;3.20;2.65;;;;;;;;;;5037007;28;93471;-77
2022/11/01 02:47:16;;;;;;;3.13;2.45;;;;;;;;;;5036763;28;93447;-77
2022/11/01 02:49:44;;;;;;;3.63;2.60;;;;;;;;;;5037580;28;92206;-77
2022/11/01 02:52:13;;;;;;;3.50;2.40;;;;;;;;;;5037072;28;92673;-77
2022/11/01 02:54:42;;;;;;;3.40;2.33;;;;;;;;;;5019391;28;93424;-77
2022/11/01 02:57:29;;;;;;;5.45;2.40;;;;;;;;;;5038623;28;94858;-77
2022/11/01 03:00:02;;;;;;;6.07;2.70;;;;;;;;;;5022738;28;93560;-77
2022/11/01 03:02:40;;;;;;;2.88;2.42;;;;;;;;;;5036884;28;93434;-77
2022/11/01 03:05:11;;;;;;;4.53;2.40;;;;;;;;;;5036753;28;93176;-77
2022/11/01 03:07:38;;;;;;;2.85;2.33;;;;;;;;;;5035776;27;94597;-77
2022/11/01 03:10:05;;;;;;;6.47;2.65;;;;;;;;;;5037051;28;92426;-77
2022/11/01 03:12:32;;;;;;;4.72;2.38;;;;;;;;;;5036715;28;93422;-77
2022/11/01 03:15:19;;;;;;;4.65;2.45;;;;;;;;;;5037703;28;93593;-77
2022/11/01 03:17:50;;;;;;;3.47;2.60;;;;;;;;;;5037162;28;92374;-77
2022/11/01 03:20:21;;;;;;;4.47;2.72;;;;;;;;;;5039560;28;93748;-77
2022/11/01 03:22:59;;;;;;;4.00;2.40;;;;;;;;;;5035341;28;94878;-77
2022/11/01 03:25:43;;;;;;;4.32;2.55;;;;;;;;;;5018911;28;95499;-77
2022/11/01 03:28:17;;;;;;;3.60;2.30;;;;;;;;;;5037171;28;97469;-77
2022/11/01 03:30:46;;;;;;;6.10;2.42;;;;;;;;;;5036736;28;92400;-77
2022/11/01 03:33:14;;;;;;;3.60;2.50;;;;;;;;;;5036788;28;94761;-78
2022/11/01 03:35:43;;;;;;;4.10;2.22;;;;;;;;;;5036443;28;93760;-77
2022/11/01 03:38:12;;;;;;;2.70;2.08;;;;;;;;;;5036458;28;93061;-77
2022/11/01 03:40:40;;;;;;;3.15;2.63;;;;;;;;;;5019117;28;93141;-78
2022/11/01 03:43:09;;;;;;;2.75;2.47;;;;;;;;;;5039211;28;93402;-77
2022/11/01 03:45:37;;;;;;;3.03;2.50;;;;;;;;;;5036405;28;93125;-77
2022/11/01 03:48:04;;;;;;;2.90;2.35;;;;;;;;;;5016850;28;95810;-77
2022/11/01 03:50:31;;;;;;;5.03;2.53;;;;;;;;;;5035915;28;92376;-77
2022/11/01 03:52:57;;;;;;;4.97;2.55;;;;;;;;;;5018849;28;92853;-77
2022/11/01 03:55:24;;;;;;;4.22;2.60;;;;;;;;;;5036127;28;93428;-77
2022/11/01 03:57:51;;;;;;;4.07;2.25;;;;;;;;;;5036155;28;92550;-77
2022/11/01 04:00:21;;;;;;;4.38;2.50;;;;;;;;;;5035872;28;93390;-77
2022/11/01 04:02:48;;;;;;;5.85;2.50;;;;;;;;;;5036201;28;93192;-77
2022/11/01 04:05:15;;;;;;;4.65;2.47;;;;;;;;;;5039640;28;91734;-78
2022/11/01 04:07:42;;;;;;;5.07;2.42;;;;;;;;;;5035611;28;93466;-77
2022/11/01 04:10:09;;;;;;;2.95;2.30;;;;;;;;;;5036364;28;92378;-77
2022/11/01 04:12:35;;;;;;;4.53;2.22;;;;;;;;;;5034326;28;94764;-77
2022/11/01 04:20:32;;;;;;;3.10;2.35;;;;;;;;;;5036003;28;93354;-77
2022/11/01 04:23:01;;;;;;;3.92;1.90;;;;;;;;;;5035347;28;93422;-77
2022/11/01 04:25:28;;;;;;;3.80;2.25;;;;;;;;;;5038780;28;92443;-77
2022/11/01 04:27:55;;;;;;;3.78;2.28;;;;;;;;;;5035551;28;93425;-77
2022/11/01 04:30:30;;;;;;;5.53;2.45;;;;;;;;;;5036084;28;91789;-78
2022/11/01 04:32:56;;;;;;;3.53;2.20;;;;;;;;;;5035613;28;92725;-77
2022/11/01 04:35:23;;;;;;;4.28;2.42;;;;;;;;;;5035267;28;93448;-77
2022/11/01 04:37:56;;;;;;;3.10;1.98;;;;;;;;;;5016116;28;95011;-77
2022/11/01 04:40:22;;;;;;;2.35;2.00;;;;;;;;;;5035277;28;95412;-77
2022/11/01 04:42:49;;;;;;;5.95;2.30;;;;;;;;;;5035146;28;93491;-77
2022/11/01 04:45:15;;;;;;;2.72;1.85;;;;;;;;;;5035395;28;93105;-77
2022/11/01 04:47:49;;;;;;;3.55;2.13;;;;;;;;;;5038044;28;93119;-77
2022/11/01 04:50:16;;;;;;;2.58;1.92;;;;;;;;;;5035419;28;92560;-78
2022/11/01 04:52:42;;;;;;;5.97;2.33;;;;;;;;;;5035195;28;92731;-78
2022/11/01 04:55:08;;;;;;;3.10;1.80;;;;;;;;;;5035026;28;92892;-77
2022/11/01 04:57:41;;;;;;;3.38;2.13;;;;;;;;;;5035025;28;92439;-77
2022/11/01 05:00:10;;;;;;;2.70;2.05;;;;;;;;;;5035178;28;92973;-77
2022/11/01 05:02:37;;;;;;;3.72;1.95;;;;;;;;;;5032743;28;95832;-77
2022/11/01 05:05:04;;;;;;;2.20;1.70;;;;;;;;;;5034935;28;92507;-77
2022/11/01 05:07:30;;;;;;;1.67;1.58;;;;;;;;;;5034385;28;93696;-77
2022/11/01 05:09:56;;;;;;;3.80;1.75;;;;;;;;;;5020377;28;93422;-77
2022/11/01 05:12:23;;;;;;;2.63;1.85;;;;;;;;;;5035359;28;94154;-77
2022/11/01 05:14:49;;;;;;;3.17;1.98;;;;;;;;;;5035054;28;93518;-78
2022/11/01 05:17:22;;;;;;;2.75;1.60;;;;;;;;;;5035108;28;92349;-77
2022/11/01 05:19:48;;;;;;;2.60;1.70;;;;;;;;;;5018043;28;93638;-77
2022/11/01 05:22:14;;;;;;;2.30;1.58;;;;;;;;;;5034641;28;93425;-77
2022/11/01 05:24:40;;;;;;;2.50;1.50;;;;;;;;;;5034878;28;92460;-77
2022/11/01 05:27:12;;;;;;;2.20;1.80;;;;;;;;;;5033222;28;94954;-77
2022/11/01 05:29:38;;;;;;;2.20;1.45;;;;;;;;;;5016530;28;93930;-78
2022/11/01 05:32:04;;;;;;;3.75;1.65;;;;;;;;;;5037943;28;92447;-78
2022/11/01 05:34:31;;;;;;;4.75;1.80;;;;;;;;;;5034610;28;93644;-78
2022/11/01 05:36:57;;;;;;;3.55;1.60;;;;;;;;;;5034290;28;92483;-77
2022/11/01 05:39:23;;;;;;;2.08;1.50;;;;;;;;;;5034426;28;93105;-77
2022/11/01 05:41:49;;;;;;;1.65;1.38;;;;;;;;;;5034620;28;95021;-77
2022/11/01 05:44:16;;;;;;;2.75;1.60;;;;;;;;;;5035021;28;92043;-77
2022/11/01 05:46:42;;;;;;;2.42;1.55;;;;;;;;;;5034591;28;92459;-77
2022/11/01 05:49:08;;;;;;;4.20;1.33;;;;;;;;;;5034426;28;93481;-77
2022/11/01 05:51:35;;;;;;;1.58;1.40;;;;;;;;;;5032908;28;94812;-77
2022/11/01 05:54:01;;;;;;;2.58;1.75;;;;;;;;;;5036757;28;95510;-78
2022/11/01 05:56:27;;;;;;;2.92;1.40;;;;;;;;;;5034366;28;92471;-77
2022/11/01 05:58:53;;;;;;;2.25;1.52;;;;;;;;;;5034294;28;93143;-77
2022/11/01 06:01:20;;;;;;;2.15;1.40;;;;;;;;;;5016123;28;93386;-77
2022/11/01 06:03:48;;;;;;;2.90;1.33;;;;;;;;;;5033990;28;92938;-77
2022/11/01 06:06:15;;;;;;;2.38;1.30;;;;;;;;;;5034114;28;93146;-77
2022/11/01 06:08:41;;;;;;;4.00;1.48;;;;;;;;;;5034066;28;92527;-77
2022/11/01 06:11:08;;;;;;;1.75;1.38;;;;;;;;;;5034373;28;92455;-77
2022/11/01 06:13:34;;;;;;;1.63;1.20;;;;;;;;;;5037317;28;93081;-77
2022/11/01 06:16:02;;;;;;;3.92;1.42;;;;;;;;;;5014817;28;94861;-77
2022/11/01 06:18:28;;;;;;;2.10;1.30;;;;;;;;;;5033750;28;96068;-77
2022/11/01 06:20:55;;;;;;;3.55;1.27;;;;;;;;;;5033822;28;93462;-77
2022/11/01 06:23:22;;;;;;;3.30;1.75;;;;;;;;;;5034121;28;92479;-77
2022/11/01 06:25:48;;;;;;;2.65;1.30;;;;;;;;;;5016198;28;93140;-77
2022/11/01 06:28:15;;;;;;;1.30;1.20;;;;;;;;;;5033946;28;93400;-77
2022/11/01 06:30:42;;;;;;;1.23;1.13;;;;;;;;;;5034476;28;92578;-78
2022/11/01 06:33:09;;;;;;;2.40;1.30;;;;;;;;;;5034389;28;93145;-77
2022/11/01 06:35:36;;;;;;;3.22;1.55;;;;;;;;;;5037076;28;92826;-78
2022/11/01 06:38:03;;;;;;;1.55;1.08;;;;;;;;;;5034022;28;93356;-77
2022/11/01 06:40:29;;;;;;;1.20;1.10;;;;;;;;;;5031874;27;96153;-77
2022/11/01 06:43:00;;;;;;;3.13;1.25;;;;;;;;;;5018621;28;92427;-78
2022/11/01 06:45:28;;;;;;;1.70;1.02;;;;;;;;;;5037093;28;93045;-77
2022/11/01 06:47:54;;;;;;;3.17;1.05;;;;;;;;;;5036911;28;92366;-78
2022/11/01 06:50:20;;;;;;;3.45;1.00;;;;;;;;;;5037323;28;92574;-77
2022/11/01 06:52:47;;;;;;;1.77;1.08;;;;;;;;;;5036883;28;93406;-77
2022/11/01 06:55:13;;;;;;;1.63;1.45;;;;;;;;;;5036903;28;93574;-77
2022/11/01 06:57:40;;;;;;;1.63;1.00;;;;;;;;;;5040662;28;91673;-77
2022/11/01 07:00:08;;;;;;;2.13;1.38;;;;;;;;;;5036601;28;93494;-77
2022/11/01 07:02:34;;;;;;;2.08;1.10;;;;;;;;;;5037089;28;92692;-77
2022/11/01 07:05:01;;;;;;;2.95;1.20;;;;;;;;;;5035282;28;94954;-77
2022/11/01 07:07:27;;;;;;;1.75;1.20;;;;;;;;;;5036478;28;93370;-77
2022/11/01 07:09:53;;;;;;;5.07;1.23;;;;;;;;;;5036837;28;92464;-77
2022/11/01 07:12:19;;;;;;;5.85;1.25;;;;;;;;;;5037527;28;96053;-78
2022/11/01 07:14:46;;;;;;;3.45;1.17;;;;;;;;;;5036537;28;93774;-77
2022/11/01 07:17:12;;;;;;;2.28;1.05;;;;;;;;;;5036608;28;92525;-77
2022/11/01 07:19:38;;;;;;;2.50;1.23;;;;;;;;;;5039487;28;93127;-78
2022/11/01 07:22:05;;;;;;;2.65;1.10;;;;;;;;;;5037182;28;91713;-78
2022/11/01 07:24:31;;;;;;;4.50;1.40;;;;;;;;;;5036926;28;92618;-77
2022/11/01 07:26:57;;;;;;;4.28;1.30;;;;;;;;;;5036394;28;93465;-77
2022/11/01 07:29:23;;;;;;;4.13;0.93;;;;;;;;;;5034891;28;94859;-77
2022/11/01 07:31:50;;;;;;;1.55;0.88;;;;;;;;;;5036393;28;95502;-77
2022/11/01 07:34:16;;;;;;;4.13;1.30;;;;;;;;;;5036365;28;93431;-77
2022/11/01 07:36:42;;;;;;;3.17;1.23;;;;;;;;;;5036563;28;92423;-77
2022/11/01 07:39:09;;;;;;;5.35;1.38;;;;;;;;;;5036424;28;93065;-78
2022/11/01 07:41:35;;;;;;;2.75;1.15;;;;;;;;;;5039396;28;93416;-77
2022/11/01 07:44:01;;;;;;;3.35;1.33;;;;;;;;;;5035782;28;93161;-77
2022/11/01 07:46:29;;;;;;;2.80;1.20;;;;;;;;;;5036772;28;92667;-77
2022/11/01 07:48:59;;;;;;;3.53;1.50;;;;;;;;;;5036077;28;92406;-77
2022/11/01 07:51:25;;;;;;;3.30;1.25;;;;;;;;;;5018543;28;93348;-77
2022/11/01 07:53:51;;;;;;;3.80;1.50;;;;;;;;;;5034105;27;96112;-77
2022/11/01 07:56:20;;;;;;;5.05;1.48;;;;;;;;;;5036296;28;92786;-77
2022/11/01 07:58:46;;;;;;;5.03;1.33;;;;;;;;;;5018178;28;93451;-77
2022/11/01 08:01:13;;;;;;;6.68;1.40;;;;;;;;;;5035955;28;93513;-77
2022/11/01 08:03:39;;;;;;;3.55;1.27;;;;;;;;;;5039538;28;92437;-78
2022/11/01 08:06:06;;;;;;;4.88;1.40;;;;;;;;;;5035868;28;93429;-78
2022/11/01 08:08:32;;;;;;;4.50;1.05;;;;;;;;;;5035902;28;92455;-77
2022/11/01 08:11:00;;;;;;;3.58;1.15;;;;;;;;;;5036111;28;93117;-77
2022/11/01 08:13:26;;;;;;;6.68;1.30;;;;;;;;;;5035900;28;93596;-77
2022/11/01 08:15:53;;;;;;;4.63;1.40;;;;;;;;;;5035270;28;92486;-77
2022/11/01 08:18:21;;;;;;;2.42;1.13;;;;;;;;;;5016762;28;94795;-77
2022/11/01 08:20:48;;;;;;;4.38;1.10;;;;;;;;;;5035366;28;93440;-77
2022/11/01 08:23:14;;;;;;;3.22;1.38;;;;;;;;;;5021188;28;92454;-77
2022/11/01 08:25:41;;;;;;;3.40;1.27;;;;;;;;;;5035211;28;93438;-77
2022/11/01 08:28:11;;;;;;;4.60;1.33;;;;;;;;;;5035515;28;92473;-77
2022/11/01 08:30:39;;;;;;;5.43;1.55;;;;;;;;;;5035458;28;93169;-77
2022/11/01 08:33:05;;;;;;;3.55;1.23;;;;;;;;;;5035299;28;93462;-77
2022/11/01 08:35:32;;;;;;;3.88;1.40;;;;;;;;;;5036086;28;91689;-77
2022/11/01 08:37:59;;;;;;;4.55;1.25;;;;;;;;;;5017483;28;92737;-77
2022/11/01 08:40:27;;;;;;;6.10;1.80;;;;;;;;;;5035027;28;93455;-77
2022/11/01 08:42:53;;;;;;;3.75;1.30;;;;;;;;;;5033982;28;94844;-77
2022/11/01 08:45:19;;;;;;;5.88;1.85;;;;;;;;;;5020572;28;95808;-77
2022/11/01 08:47:46;;;;;;;5.85;1.75;;;;;;;;;;5035630;28;92449;-77
2022/11/01 08:50:13;;;;;;;5.75;1.80;;;;;;;;;;5035893;28;92469;-78
2022/11/01 08:52:40;;;;;;;5.30;1.52;;;;;;;;;;5035082;28;92928;-77
2022/11/01 08:55:06;;;;;;;4.43;1.38;;;;;;;;;;5035600;28;92412;-77
2022/11/01 08:57:33;;;;;;;6.72;1.63;;;;;;;;;;5035394;28;92927;-77
2022/11/01 08:59:59;;;;;;;3.75;1.33;;;;;;;;;;5035510;28;92857;-77
2022/11/01 09:02:26;;;;;;;2.90;1.15;;;;;;;;;;5034985;28;92740;-77
2022/11/01 09:04:52;;;;;;;4.63;1.50;;;;;;;;;;5034309;28;92757;-77
2022/11/01 09:07:19;;;;;;;4.22;1.38;;;;;;;;;;5035719;28;94936;-77
2022/11/01 09:09:45;;;;;;;6.03;1.40;;;;;;;;;;5035004;28;95433;-77
2022/11/01 09:12:11;;;;;;;7.22;1.90;;;;;;;;;;5035003;28;93740;-77
2022/11/01 09:14:40;;;;;;;6.80;1.52;;;;;;;;;;5035538;28;92409;-77
2022/11/01 09:17:06;;;;;;;5.00;1.55;;;;;;;;;;5034713;28;93213;-78
2022/11/01 09:19:32;;;;;;;7.20;1.73;;;;;;;;;;5034371;28;93492;-77
2022/11/01 09:21:59;;;;;;;4.78;1.42;;;;;;;;;;5034785;28;92409;-77
2022/11/01 09:24:25;;;;;;;5.85;1.65;;;;;;;;;;5017502;28;93129;-78
2022/11/01 09:26:51;;;;;;;7.68;1.73;;;;;;;;;;5034761;28;94320;-77
2022/11/01 09:29:19;;;;;;;6.80;1.75;;;;;;;;;;5037753;28;92372;-77
2022/11/01 09:31:49;;;;;;;8.65;2.08;;;;;;;;;;5032933;28;96199;-78
2022/11/01 09:34:15;;;;;;;5.97;1.43;;;;;;;;;;5034623;28;92421;-77
2022/11/01 09:36:41;;;;;;;10.02;2.00;;;;;;;;;;5016821;28;93128;-77
2022/11/01 09:39:08;;;;;;;10.00;1.95;;;;;;;;;;5034876;28;96786;-77
2022/11/01 09:41:37;;;;;;;7.57;1.75;;;;;;;;;;5017175;28;92439;-77
2022/11/01 09:44:05;;;;;;;5.07;1.50;;;;;;;;;;5034302;28;93118;-77
2022/11/01 09:46:39;;;;;;;4.75;1.48;;;;;;;;;;5034099;28;93445;-77
2022/11/01 09:49:06;;;;;;;4.80;1.50;;;;;;;;;;5035112;28;91700;-77
2022/11/01 09:51:32;;;;;;;8.27;2.00;;;;;;;;;;5037616;28;92481;-77
2022/11/01 09:54:03;;;;;;;3.97;1.25;;;;;;;;;;5034352;28;92438;-77
2022/11/01 09:56:52;;;;;;;6.70;1.55;;;;;;;;;;5015564;28;94755;-77
2022/11/01 09:59:34;;;;;;;8.77;1.80;;;;;;;;;;5023385;28;93431;-77
2022/11/01 10:02:20;;;;;;;5.22;1.75;;;;;;;;;;5034215;28;92441;-77
2022/11/01 10:04:46;;;;;;;8.02;2.17;;;;;;;;;;5034351;28;92888;-77
2022/11/01 10:07:21;;;;;;;5.78;1.52;;;;;;;;;;5034385;28;93758;-78
2022/11/01 10:09:50;;;;;;;8.93;1.95;;;;;;;;;;5033913;28;92538;-77
2022/11/01 10:12:22;;;;;;;5.03;1.88;;;;;;;;;;5034599;28;93141;-77
2022/11/01 10:14:48;;;;;;;6.93;2.00;;;;;;;;;;5037537;28;92723;-77
2022/11/01 10:17:16;;;;;;;7.10;1.83;;;;;;;;;;5035934;28;92836;-78
2022/11/01 10:19:45;;;;;;;5.18;1.73;;;;;;;;;;5020016;28;94898;-77
2022/11/01 10:22:16;;;;;;;4.13;1.17;;;;;;;;;;5035705;28;94865;-77
2022/11/01 10:24:51;;;;;;;8.23;1.77;;;;;;;;;;5037425;28;95482;-77
2022/11/01 10:27:21;;;;;;;7.63;1.90;;;;;;;;;;5038308;28;96465;-77
2022/11/01 10:29:48;;;;;;;;;;;;;;;;;;5037991;28;92482;-77
2022/11/01 10:32:22;;;;;;;5.63;1.70;;;;;;;;;;5038686;28;123452;-78
2022/11/01 10:34:49;;;;;;;5.57;1.63;;;;;;;;;;5040332;28;93475;-77
2022/11/01 10:37:22;;;;;;;4.07;1.60;;;;;;;;;;5038330;28;93120;-77
2022/11/01 10:40:14;;;;;;;5.70;1.70;;;;;;;;;;5037985;28;92904;-77
2022/11/01 10:42:41;;;;;;;4.60;1.52;;;;;;;;;;5033704;28;92476;-77
2022/11/01 10:45:10;;;;;;;6.22;1.85;;;;;;;;;;5037331;28;93203;-77
2022/11/01 10:47:37;;;;;;;4.35;1.40;;;;;;;;;;5035246;28;96167;-77
2022/11/01 10:50:16;;;;;;;8.00;2.00;;;;;;;;;;5037508;28;92557;-77
2022/11/01 10:52:48;;;;;;;7.80;2.10;;;;;;;;;;5037154;28;92296;-77
2022/11/01 10:55:18;;;;;;;4.32;1.40;;;;;;;;;;5037144;28;93408;-78
2022/11/01 10:57:48;;;;;;;7.13;1.50;;;;;;;;;;5040220;28;92623;-77
2022/11/01 11:00:16;;;;;;;6.85;1.65;;;;;;;;;;5037139;28;93757;-77
2022/11/01 11:02:55;;;;;;;6.13;1.75;;;;;;;;;;5036646;28;92450;-77
2022/11/01 11:05:23;;;;;;;3.88;1.60;;;;;;;;;;5019930;28;93090;-77
2022/11/01 11:07:49;;;;;;;6.30;1.90;;;;;;;;;;4998707;28;93983;-77
2022/11/01 11:10:25;;;;;;;6.75;1.70;;;;;;;;;;5016506;28;92489;-77
2022/11/01 11:12:54;;;;;;;5.90;1.85;;;;;;;;;;5015304;28;94741;-77
2022/11/01 11:15:22;;;;;;;5.00;1.27;;;;;;;;;;5020003;28;93449;-78
2022/11/01 11:17:51;;;;;;;5.95;1.75;;;;;;;;;;5036634;28;92435;-77
2022/11/01 11:20:19;;;;;;;7.22;1.73;;;;;;;;;;5039490;28;93110;-77
2022/11/01 11:22:46;;;;;;;4.18;1.30;;;;;;;;;;5036638;28;92433;-78
2022/11/01 11:25:14;;;;;;;6.82;1.30;;;;;;;;;;5036863;28;93364;-77
2022/11/01 11:27:43;;;;;;;5.55;1.63;;;;;;;;;;5036084;28;93401;-77
2022/11/01 11:30:12;;;;;;;5.18;1.70;;;;;;;;;;5019652;28;92009;-77
2022/11/01 11:32:45;;;;;;;10.37;1.63;;;;;;;;;;5036734;28;92422;-77
2022/11/01 11:35:16;;;;;;;3.13;1.20;;;;;;;;;;5036055;28;93422;-77
2022/11/01 11:37:53;;;;;;;4.50;1.45;;;;;;;;;;5034605;28;94885;-77
2022/11/01 11:40:24;;;;;;;5.07;1.80;;;;;;;;;;5037216;28;95422;-78
2022/11/01 11:42:52;;;;;;;6.95;1.73;;;;;;;;;;5039080;28;93587;-77
2022/11/01 11:45:21;;;;;;;6.32;1.63;;;;;;;;;;5036218;28;93120;-78
2022/11/01 11:47:47;;;;;;;4.28;1.20;;;;;;;;;;5035725;28;93422;-78
2022/11/01 11:50:20;;;;;;;6.50;1.92;;;;;;;;;;5036893;28;93268;-77
2022/11/01 11:52:47;;;;;;;6.93;2.22;;;;;;;;;;5036502;28;93773;-78
2022/11/01 11:55:34;;;;;;;6.40;1.92;;;;;;;;;;5036619;28;93128;-77
2022/11/01 11:58:02;;;;;;;7.63;2.08;;;;;;;;;;5036303;28;92431;-77
2022/11/01 12:00:30;;;;;;;3.47;1.38;;;;;;;;;;5036162;28;93276;-77
2022/11/01 12:03:00;;;;;;;5.80;1.52;;;;;;;;;;5033936;28;95814;-78
2022/11/01 12:05:27;;;;;;;6.15;1.75;;;;;;;;;;5021587;28;92556;-77
2022/11/01 12:07:54;;;;;;;7.45;1.75;;;;;;;;;;5035323;28;93469;-77
2022/11/01 12:10:35;;;;;;;6.90;1.77;;;;;;;;;;5018472;28;92567;-77
2022/11/01 12:13:02;;;;;;;5.68;1.80;;;;;;;;;;5035894;28;93055;-77
2022/11/01 12:15:34;;;;;;;4.05;1.65;;;;;;;;;;5017873;28;93474;-77
2022/11/01 12:18:12;;;;;;;7.63;1.85;;;;;;;;;;5035991;28;92435;-77
2022/11/01 12:20:41;;;;;;;7.57;1.80;;;;;;;;;;5036302;28;92887;-77
2022/11/01 12:23:25;;;;;;;6.57;1.75;;;;;;;;;;5035729;28;94473;-77
2022/11/01 12:25:52;;;;;;;5.05;1.80;;;;;;;;;;5035950;28;92420;-77
2022/11/01 12:28:22;;;;;;;3.08;1.38;;;;;;;;;;5037093;28;94848;-77
2022/11/01 12:30:51;;;;;;;5.32;1.67;;;;;;;;;;5035603;28;92854;-77
2022/11/01 12:33:22;;;;;;;3.53;1.58;;;;;;;;;;5017923;28;92390;-77
2022/11/01 12:35:51;;;;;;;5.15;1.52;;;;;;;;;;5035372;28;93381;-77
2022/11/01 12:38:28;;;;;;;6.70;1.75;;;;;;;;;;5035470;28;92650;-77
2022/11/01 12:40:56;;;;;;;5.22;1.58;;;;;;;;;;5034826;28;93406;-77
2022/11/01 12:43:28;;;;;;;5.07;1.35;;;;;;;;;;5035170;28;93410;-77
2022/11/01 12:46:09;;;;;;;5.10;1.63;;;;;;;;;;5036611;28;91699;-77
2022/11/01 12:48:40;;;;;;;5.57;1.88;;;;;;;;;;5038452;28;92385;-77
2022/11/01 12:51:10;;;;;;;7.47;1.40;;;;;;;;;;5017766;28;92519;-77
2022/11/01 12:53:45;;;;;;;5.35;1.48;;;;;;;;;;5016144;28;94775;-77
2022/11/01 12:56:11;;;;;;;7.70;1.90;;;;;;;;;;5035296;28;93341;-77
2022/11/01 12:58:38;;;;;;;4.82;1.75;;;;;;;;;;5034892;28;92470;-77
2022/11/01 13:01:04;;;;;;;3.67;1.58;;;;;;;;;;5035374;28;92799;-77
2022/11/01 13:03:50;;;;;;;3.22;1.50;;;;;;;;;;5017103;28;96622;-77
2022/11/01 13:06:27;;;;;;;4.40;1.67;;;;;;;;;;5035808;28;92411;-77
2022/11/01 13:08:53;;;;;;;4.63;1.73;;;;;;;;;;5030718;28;98525;-77
2022/11/01 13:11:23;;;;;;;7.43;1.65;;;;;;;;;;5035007;28;99796;-77
2022/11/01 13:13:56;;;;;;;7.90;1.67;;;;;;;;;;5031151;28;98533;-77
2022/11/01 13:16:26;;;;;;;4.30;1.55;;;;;;;;;;5030193;28;99707;-77
2022/11/01 13:18:52;;;;;;;;;;;;;;;;;;5030851;28;99202;-77
2022/11/01 13:21:34;;;;;;;3.20;1.05;;;;;;;;;;5031738;28;130697;-77
2022/11/01 13:24:19;;;;;;;4.43;1.17;;;;;;;;;;5012606;28;99516;-77
2022/11/01 13:27:04;;;;;;;4.85;1.40;;;;;;;;;;5030836;28;98497;-77
2022/11/01 13:29:34;;;;;;;2.78;1.05;;;;;;;;;;5030816;28;99515;-77
2022/11/01 13:32:00;;;;;;;;;;;;;;;;;;5030548;28;99464;-77
2022/11/01 13:34:31;;;;;;;2.95;1.38;;;;;;;;;;5035224;28;117136;-77
2022/11/01 13:37:17;;;;;;;4.90;1.55;;;;;;;;;;5031000;28;98607;-77
2022/11/01 13:39:58;;;;;;;4.75;1.40;;;;;;;;;;5030475;28;98449;-77
2022/11/01 13:42:33;;;;;;;4.75;1.35;;;;;;;;;;5030343;28;99309;-77
2022/11/01 13:45:05;;;;;;;3.63;1.35;;;;;;;;;;5012013;28;100256;-77
2022/11/01 13:47:43;;;;;;;5.95;1.98;;;;;;;;;;5030460;28;98567;-77
2022/11/01 13:50:13;;;;;;;2.97;1.23;;;;;;;;;;5031243;27;98911;-77
2022/11/01 13:52:43;;;;;;;3.63;1.42;;;;;;;;;;5033693;28;99517;-77
2022/11/01 13:55:22;;;;;;;3.80;1.40;;;;;;;;;;5034169;28;98683;-77
2022/11/01 13:57:49;;;;;;;4.28;1.60;;;;;;;;;;5036662;28;99194;-77
2022/11/01 14:00:33;;;;;;;4.05;1.25;;;;;;;;;;5034053;28;98463;-77
2022/11/01 14:03:14;;;;;;;3.90;1.38;;;;;;;;;;5033920;28;99460;-77
2022/11/01 14:05:42;;;;;;;5.78;1.60;;;;;;;;;;5033431;28;99989;-77
2022/11/01 14:08:13;;;;;;;5.65;1.08;;;;;;;;;;5033165;28;98549;-77
2022/11/01 14:10:46;;;;;;;2.95;1.27;;;;;;;;;;5033316;28;99715;-77
2022/11/01 14:13:14;;;;;;;3.53;1.52;;;;;;;;;;5033381;28;99736;-77
2022/11/01 14:15:52;;;;;;;5.78;1.73;;;;;;;;;;5033050;28;98570;-77
2022/11/01 14:18:18;;;;;;;4.35;1.40;;;;;;;;;;5033630;28;99111;-77
2022/11/01 14:20:45;;;;;;;5.22;1.23;;;;;;;;;;5018858;28;99611;-77
2022/11/01 14:23:27;;;;;;;9.68;2.05;;;;;;;;;;5033971;28;100288;-77
2022/11/01 14:26:12;;;;;;;10.57;2.10;;;;;;;;;;5033017;28;99455;-77
2022/11/01 14:28:42;;;;;;;6.13;1.60;;;;;;;;;;5034052;28;97817;-77
2022/11/01 14:31:08;;;;;;;7.28;1.55;;;;;;;;;;5033392;28;98514;-77
2022/11/01 14:33:35;;;;;;;8.98;2.00;;;;;;;;;;5033181;28;99493;-77
2022/11/01 14:36:02;;;;;;;7.75;1.88;;;;;;;;;;5032879;28;99214;-77
2022/11/01 14:38:34;;;;;;;12.00;2.05;;;;;;;;;;5033128;28;99898;-77
2022/11/01 14:41:00;;;;;;;8.10;2.08;;;;;;;;;;5032850;28;99518;-77
2022/11/01 14:43:50;;;;;;;8.23;2.00;;;;;;;;;;5036246;28;98818;-77
2022/11/01 14:46:19;;;;;;;6.95;1.80;;;;;;;;;;5015532;28;100955;-77
2022/11/01 14:48:48;;;;;;;5.72;1.58;;;;;;;;;;5015636;28;98825;-77
2022/11/01 14:51:23;;;;;;;13.15;2.40;;;;;;;;;;5033161;28;99076;-77
2022/11/01 14:53:54;;;;;;;8.40;1.85;;;;;;;;;;5033376;28;99121;-77
2022/11/01 14:56:21;;;;;;;12.13;2.15;;;;;;;;;;5033591;28;98497;-77
2022/11/01 14:58:48;;;;;;;8.02;1.75;;;;;;;;;;5032791;28;99165;-77
2022/11/01 15:01:16;;;;;;;8.98;2.22;;;;;;;;;;5014562;28;100052;-77
2022/11/01 15:03:55;;;;;;;4.82;1.83;;;;;;;;;;5034984;28;98634;-77